Time;durP1;ratioP1;P1;durP2;ratioP2;P2;SDS_P1;SDS_P2;PMS_P1;PMS_P2;Temp;Humidity;BMP_temperature;BMP_pressure;BME280_temperature;BME280_humidity;BME280_pressure;Samples;Min_cycle;Max_cycle;Signal;HPM_P1;HPM_P2
2024/02/05 00:00:13;;;;;;;8.90;5.25;;;;;;;7.52;53.66;95245.44;5046595;28;20042;-77
2024/02/05 00:02:40;;;;;;;10.48;5.50;;;;;;;7.54;53.50;95251.25;5047366;28;20024;-77
2024/02/05 00:05:07;;;;;;;8.40;5.22;;;;;;;7.46;53.45;95231.44;5046497;28;20479;-78
2024/02/05 00:07:32;;;;;;;9.40;5.05;;;;;;;7.34;53.70;95218.25;5029181;28;20105;-78
2024/02/05 00:09:58;;;;;;;10.73;5.20;;;;;;;7.16;53.99;95221.22;5044992;28;20075;-79
2024/02/05 00:12:24;;;;;;;7.78;5.13;;;;;;;7.08;54.14;95203.34;5047493;28;20021;-78
2024/02/05 00:14:50;;;;;;;7.70;5.40;;;;;;;7.00;54.26;95210.84;5029038;28;20025;-78
2024/02/05 00:17:16;;;;;;;10.10;5.63;;;;;;;7.08;54.24;95212.31;5046219;28;20544;-78
2024/02/05 00:19:41;;;;;;;8.07;5.05;;;;;;;6.98;54.61;95210.47;5047105;28;20013;-77
2024/02/05 00:22:07;;;;;;;7.18;4.63;;;;;;;6.87;54.91;95204.34;5047877;28;20552;-79
2024/02/05 00:24:33;;;;;;;8.57;5.05;;;;;;;7.00;54.80;95212.81;5046818;28;20164;-78
2024/02/05 00:26:58;;;;;;;8.07;5.03;;;;;;;7.02;54.65;95222.16;5046999;28;20167;-78
2024/02/05 00:29:24;;;;;;;6.70;4.85;;;;;;;7.01;54.39;95209.66;5047035;28;20028;-77
2024/02/05 00:31:49;;;;;;;6.30;4.18;;;;;;;6.96;54.63;95201.13;5045256;28;20124;-78
2024/02/05 00:34:15;;;;;;;8.40;5.10;;;;;;;6.98;55.04;95205.00;5047398;28;20044;-78
2024/02/05 00:36:40;;;;;;;8.65;4.72;;;;;;;6.84;55.19;95194.22;5045199;28;20053;-77
2024/02/05 00:39:10;;;;;;;7.03;4.70;;;;;;;6.77;55.39;95199.78;5047249;28;20017;-79
2024/02/05 00:41:38;;;;;;;10.15;5.03;;;;;;;6.78;55.33;95179.47;5045129;28;20116;-79
2024/02/05 00:44:03;;;;;;;6.53;4.50;;;;;;;6.67;55.44;95190.50;5046576;28;20059;-78
2024/02/05 00:46:29;;;;;;;9.13;4.53;;;;;;;6.67;55.63;95178.78;5044959;28;20124;-79
2024/02/05 00:48:55;;;;;;;7.45;4.57;;;;;;;6.67;55.37;95178.78;5044945;28;20522;-78
2024/02/05 00:51:21;;;;;;;6.30;4.35;;;;;;;6.61;55.29;95179.22;5045460;28;20534;-78
2024/02/05 00:53:47;;;;;;;9.32;4.25;;;;;;;6.61;55.61;95190.16;5046263;28;20029;-77
2024/02/05 00:56:12;;;;;;;7.32;4.45;;;;;;;6.65;55.37;95188.19;5045462;28;20033;-80
2024/02/05 00:58:38;;;;;;;6.35;4.00;;;;;;;6.70;55.48;95186.94;5046211;28;20039;-78
2024/02/05 01:01:04;;;;;;;7.57;4.20;;;;;;;6.69;55.56;95188.13;5045677;28;20033;-79
2024/02/05 01:03:30;;;;;;;6.88;4.05;;;;;;;6.69;55.53;95184.63;5044713;28;20551;-78
2024/02/05 01:05:56;;;;;;;6.93;4.05;;;;;;;6.68;55.42;95188.53;5044740;28;20021;-78
2024/02/05 01:08:21;;;;;;;9.18;4.05;;;;;;;6.71;55.41;95184.97;5028391;28;20726;-78
2024/02/05 01:10:47;;;;;;;6.82;4.38;;;;;;;6.68;55.47;95170.19;5044518;28;20123;-77
2024/02/05 01:13:12;;;;;;;7.40;3.53;;;;;;;6.67;55.56;95178.78;5045107;28;20052;-78
2024/02/05 01:15:37;;;;;;;6.20;3.50;;;;;;;6.69;55.47;95171.72;5044457;28;20121;-79
2024/02/05 01:18:04;;;;;;;8.32;4.13;;;;;;;6.68;55.33;95163.94;5046036;28;20079;-79
2024/02/05 01:20:29;;;;;;;5.05;3.80;;;;;;;6.66;55.41;95164.38;5045625;28;20491;-78
2024/02/05 01:22:54;;;;;;;6.18;3.80;;;;;;;6.70;55.26;95156.88;5028278;28;20119;-78
2024/02/05 01:25:20;;;;;;;7.90;4.40;;;;;;;6.66;55.08;95161.63;5027744;28;20345;-78
2024/02/05 01:27:45;;;;;;;8.27;4.50;;;;;;;6.59;55.16;95165.19;5027688;28;20039;-77
2024/02/05 01:30:11;;;;;;;6.13;4.00;;;;;;;6.60;55.23;95146.88;5044790;28;20352;-78
2024/02/05 01:32:37;;;;;;;7.78;4.30;;;;;;;6.67;55.05;95152.25;5045834;28;20423;-78
2024/02/05 01:35:03;;;;;;;8.05;4.68;;;;;;;6.67;54.91;95146.00;5028013;28;20094;-79
2024/02/05 01:37:29;;;;;;;7.20;4.13;;;;;;;6.76;54.68;95129.88;5044297;28;20475;-79
2024/02/05 01:39:54;;;;;;;8.98;3.97;;;;;;;6.77;54.48;95121.31;5044342;28;20025;-79
2024/02/05 01:42:20;;;;;;;7.75;4.07;;;;;;;6.62;54.54;95131.59;5045036;28;20033;-78
2024/02/05 01:44:45;;;;;;;9.85;4.40;;;;;;;6.60;54.64;95122.28;5044068;28;20025;-77
2024/02/05 01:47:13;;;;;;;7.75;4.10;;;;;;;6.47;55.03;95110.31;5044115;28;20032;-79
2024/02/05 01:49:39;;;;;;;8.90;4.43;;;;;;;6.51;55.02;95116.50;5044275;28;20480;-78
2024/02/05 01:52:09;;;;;;;8.75;4.75;;;;;;;6.47;54.95;95107.56;5044496;28;20029;-78
2024/02/05 01:54:38;;;;;;;9.25;4.65;;;;;;;6.33;55.35;95103.81;5043995;28;20047;-78
2024/02/05 01:57:08;;;;;;;8.65;4.50;;;;;;;6.34;55.41;95093.66;5044142;28;20032;-78
2024/02/05 01:59:33;;;;;;;6.57;4.20;;;;;;;6.38;55.58;95094.41;5027235;28;20991;-78
2024/02/05 02:01:58;;;;;;;7.88;4.35;;;;;;;6.30;55.46;95101.88;5044189;28;20115;-78
2024/02/05 02:04:24;;;;;;;8.52;4.57;;;;;;;6.23;55.50;95099.22;5044005;28;20036;-78
2024/02/05 02:06:50;;;;;;;9.77;3.83;;;;;;;6.21;55.54;95095.34;5043891;28;20059;-78
2024/02/05 02:09:16;;;;;;;8.13;4.22;;;;;;;6.18;55.27;95098.88;5045729;28;20136;-78
2024/02/05 02:11:41;;;;;;;7.45;3.97;;;;;;;6.21;55.02;95087.94;5043781;28;20025;-79
2024/02/05 02:14:08;;;;;;;7.88;4.28;;;;;;;6.14;55.28;95060.72;5043952;28;20025;-78
2024/02/05 02:16:33;;;;;;;9.00;4.47;;;;;;;6.05;55.62;95063.91;5043472;28;20231;-78
2024/02/05 02:19:01;;;;;;;5.60;3.45;;;;;;;5.96;55.68;95071.78;5027181;28;20574;-78
2024/02/05 02:21:26;;;;;;;6.15;3.67;;;;;;;6.02;56.08;95083.03;5045176;28;20572;-79
2024/02/05 02:23:52;;;;;;;6.25;4.07;;;;;;;6.07;55.96;95074.41;5043708;28;20021;-77
2024/02/05 02:26:18;;;;;;;9.18;3.78;;;;;;;6.08;56.32;95079.47;5043887;28;20044;-77
2024/02/05 02:28:45;;;;;;;5.55;3.85;;;;;;;5.99;55.97;95065.53;5044873;28;20082;-79
2024/02/05 02:31:10;;;;;;;6.25;3.60;;;;;;;5.92;56.23;95073.78;5045600;28;20627;-79
2024/02/05 02:33:53;;;;;;;7.22;4.15;;;;;;;5.96;56.02;95058.13;5046712;28;20111;-79
2024/02/05 02:36:24;;;;;;;5.05;3.30;;;;;;;5.83;56.33;95052.38;5049353;28;20519;-77
2024/02/05 02:39:15;;;;;;;7.50;3.50;;;;;;;5.86;56.05;95042.63;5030956;28;20418;-78
2024/02/05 02:41:42;;;;;;;7.47;3.85;;;;;;;5.96;55.78;95051.91;5047544;28;20039;-78
2024/02/05 02:44:07;;;;;;;6.18;3.45;;;;;;;5.78;56.23;95046.56;5031154;28;20031;-77
2024/02/05 02:46:33;;;;;;;5.15;3.50;;;;;;;5.73;56.25;95036.09;5047328;28;20033;-79
2024/02/05 02:48:58;;;;;;;8.68;3.22;;;;;;;5.79;55.65;95039.94;5030874;28;20596;-79
2024/02/05 02:51:24;;;;;;;6.55;3.25;;;;;;;5.82;55.98;95031.72;5048570;28;20053;-79
2024/02/05 02:53:50;;;;;;;4.90;2.88;;;;;;;5.91;55.64;95035.94;5047388;28;20021;-78
2024/02/05 02:56:15;;;;;;;5.90;3.40;;;;;;;5.95;55.96;95036.72;5030736;28;20120;-79
2024/02/05 02:58:41;;;;;;;5.28;2.78;;;;;;;5.89;55.82;95035.56;5047295;28;20037;-77
2024/02/05 03:01:06;;;;;;;5.65;3.17;;;;;;;5.97;55.62;95031.63;5047573;28;20116;-78
2024/02/05 03:03:32;;;;;;;4.75;2.90;;;;;;;6.01;55.61;95040.53;5048477;28;20500;-78
2024/02/05 03:05:57;;;;;;;4.70;2.95;;;;;;;6.00;55.67;95028.84;5030636;28;20048;-78
2024/02/05 03:08:23;;;;;;;5.78;3.00;;;;;;;5.99;55.77;95037.47;5046945;28;20033;-77
2024/02/05 03:10:49;;;;;;;5.13;3.10;;;;;;;5.97;55.38;95042.56;5047319;28;20111;-78
2024/02/05 03:13:15;;;;;;;4.70;2.97;;;;;;;5.98;55.61;95039.41;5048430;28;20104;-78
2024/02/05 03:15:40;;;;;;;4.68;3.03;;;;;;;5.89;55.74;95030.13;5048424;28;20044;-77
2024/02/05 03:18:07;;;;;;;4.85;2.72;;;;;;;5.97;55.35;95035.16;5048451;28;20625;-78
2024/02/05 03:20:37;;;;;;;4.28;2.40;;;;;;;5.99;55.26;95034.72;5046663;28;20108;-78
2024/02/05 03:23:13;;;;;;;4.88;2.95;;;;;;;6.03;55.03;95017.16;5047011;28;20032;-79
2024/02/05 03:25:39;;;;;;;5.82;3.35;;;;;;;6.01;55.00;95027.69;5030060;28;20434;-79
2024/02/05 03:28:04;;;;;;;5.28;2.97;;;;;;;5.92;55.15;95021.94;5048180;28;20393;-79
2024/02/05 03:30:31;;;;;;;3.88;2.45;;;;;;;5.89;55.13;95028.16;5048103;28;20545;-79
2024/02/05 03:32:57;;;;;;;5.55;2.50;;;;;;;6.03;54.86;95035.47;5046321;28;20036;-78
2024/02/05 03:35:23;;;;;;;5.10;3.03;;;;;;;6.09;54.35;95031.13;5030652;28;20033;-79
2024/02/05 03:37:48;;;;;;;4.28;2.00;;;;;;;6.09;54.42;95014.75;5046417;28;20135;-79
2024/02/05 03:40:14;;;;;;;5.32;2.50;;;;;;;6.08;54.59;95026.84;5048879;28;20082;-78
2024/02/05 03:42:39;;;;;;;5.57;2.55;;;;;;;6.05;54.63;95024.94;5046166;28;20029;-78
2024/02/05 03:45:05;;;;;;;5.10;3.05;;;;;;;6.11;54.29;95018.63;5029751;28;20130;-78
2024/02/05 03:47:31;;;;;;;5.97;2.88;;;;;;;6.12;54.23;95025.63;5046130;28;20032;-78
2024/02/05 03:49:57;;;;;;;4.85;2.35;;;;;;;6.11;54.17;95035.00;5046106;28;20114;-79
2024/02/05 03:52:22;;;;;;;3.92;2.53;;;;;;;6.09;54.05;95028.41;5048090;28;20075;-80
2024/02/05 03:54:48;;;;;;;4.60;2.83;;;;;;;5.94;54.26;95032.44;5047414;28;20484;-78
2024/02/05 03:57:14;;;;;;;3.97;2.70;;;;;;;6.03;54.04;95055.34;5046617;28;20021;-78
2024/02/05 03:59:39;;;;;;;6.35;2.72;;;;;;;5.96;54.00;95046.44;5046081;28;20070;-78
2024/02/05 04:02:05;;;;;;;6.45;2.63;;;;;;;5.93;54.06;95042.56;5047910;28;20103;-78
2024/02/05 04:04:30;;;;;;;5.63;2.88;;;;;;;6.04;53.48;95056.13;5029357;28;20029;-78
2024/02/05 04:06:56;;;;;;;4.65;2.95;;;;;;;6.09;53.75;95056.47;5045961;28;20040;-78
2024/02/05 04:09:21;;;;;;;4.90;2.80;;;;;;;6.05;53.40;95044.03;5047372;28;20098;-77
2024/02/05 04:11:47;;;;;;;5.72;3.00;;;;;;;6.16;53.35;95057.56;5045992;28;20048;-78
2024/02/05 04:14:12;;;;;;;6.13;2.95;;;;;;;6.21;53.16;95065.31;5047266;28;20174;-78
2024/02/05 04:16:38;;;;;;;4.65;2.50;;;;;;;6.21;53.20;95068.06;5047380;28;20017;-78
2024/02/05 04:19:03;;;;;;;4.43;2.72;;;;;;;6.28;53.07;95063.28;5047695;28;20029;-78
2024/02/05 04:21:28;;;;;;;4.05;2.70;;;;;;;6.24;53.19;95059.81;5047335;28;20021;-77
2024/02/05 04:23:54;;;;;;;6.78;2.85;;;;;;;6.27;53.09;95069.16;5046056;28;20028;-78
2024/02/05 04:26:19;;;;;;;4.53;2.72;;;;;;;6.32;52.86;95074.19;5045237;28;20146;-77
2024/02/05 04:28:47;;;;;;;4.68;2.90;;;;;;;6.36;52.91;95081.13;5047224;28;20121;-77
2024/02/05 04:31:13;;;;;;;6.00;3.00;;;;;;;6.36;52.65;95083.09;5045621;28;20036;-78
2024/02/05 04:33:40;;;;;;;3.80;2.78;;;;;;;6.39;52.60;95088.53;5029180;28;20025;-79
2024/02/05 04:36:12;;;;;;;6.28;3.15;;;;;;;6.48;52.33;95090.78;5047057;28;20102;-78
2024/02/05 04:38:38;;;;;;;5.25;2.88;;;;;;;6.49;52.54;95080.66;5028918;28;20043;-79
2024/02/05 04:41:04;;;;;;;4.68;2.70;;;;;;;6.49;52.40;95086.88;5045589;28;20119;-80
2024/02/05 04:43:29;;;;;;;5.50;3.17;;;;;;;6.45;52.34;95075.22;5044691;28;20029;-80
2024/02/05 04:45:55;;;;;;;5.18;2.70;;;;;;;6.54;52.27;95080.19;5028468;28;20119;-80
2024/02/05 04:48:21;;;;;;;5.60;2.72;;;;;;;6.58;52.03;95094.56;5045395;28;20039;-80
2024/02/05 04:50:47;;;;;;;6.03;2.85;;;;;;;6.59;51.97;95072.31;5046516;28;20063;-80
2024/02/05 04:53:13;;;;;;;5.38;2.78;;;;;;;6.57;51.99;95088.34;5045306;28;20079;-80
2024/02/05 04:55:41;;;;;;;4.72;2.95;;;;;;;6.58;52.06;95091.84;5027925;28;20029;-79
2024/02/05 04:58:10;;;;;;;4.97;2.85;;;;;;;6.63;51.79;95092.16;5045290;28;20094;-79
2024/02/05 05:00:36;;;;;;;5.68;3.13;;;;;;;6.62;51.62;95096.09;5044796;28;20351;-79
2024/02/05 05:03:02;;;;;;;8.18;3.33;;;;;;;6.63;51.92;95108.56;5044955;28;20115;-78
2024/02/05 05:05:28;;;;;;;6.85;4.07;;;;;;;6.59;52.07;95101.59;5045037;28;20096;-79
2024/02/05 05:07:53;;;;;;;10.38;4.60;;;;;;;6.55;51.92;95107.09;5044870;28;20036;-77
2024/02/05 05:10:19;;;;;;;8.32;4.50;;;;;;;6.46;52.45;95109.53;5044930;28;20487;-77
2024/02/05 05:12:44;;;;;;;9.40;4.38;;;;;;;6.43;52.56;95107.63;5027952;28;20428;-77
2024/02/05 05:15:15;;;;;;;7.20;3.72;;;;;;;6.46;52.50;95115.00;5044950;28;20029;-78
2024/02/05 05:17:41;;;;;;;7.10;4.47;;;;;;;6.49;52.30;95119.66;5044822;28;20033;-76
2024/02/05 05:20:06;;;;;;;8.02;3.80;;;;;;;6.56;52.08;95119.56;5046351;28;20486;-76
2024/02/05 05:22:32;;;;;;;8.10;3.92;;;;;;;6.41;52.52;95115.44;5044155;28;20458;-77
2024/02/05 05:24:57;;;;;;;7.18;2.90;;;;;;;6.45;52.33;95118.91;5044668;28;20047;-77
2024/02/05 05:27:23;;;;;;;5.25;3.53;;;;;;;6.49;52.21;95135.28;5044481;28;20484;-77
2024/02/05 05:29:49;;;;;;;3.67;3.08;;;;;;;6.24;52.64;95130.78;5045896;28;20435;-78
2024/02/05 05:32:14;;;;;;;5.80;2.83;;;;;;;6.24;52.99;95132.75;5044171;28;20021;-79
2024/02/05 05:34:40;;;;;;;6.85;2.80;;;;;;;6.18;53.24;95143.31;5043564;28;20668;-79
2024/02/05 05:37:05;;;;;;;3.95;2.47;;;;;;;6.20;53.05;95151.91;5044758;28;20021;-78
2024/02/05 05:39:31;;;;;;;4.75;3.00;;;;;;;6.22;53.10;95149.53;5044094;28;20032;-79
2024/02/05 05:41:56;;;;;;;6.63;2.88;;;;;;;6.16;53.15;95153.13;5045570;28;20024;-78
2024/02/05 05:44:21;;;;;;;7.78;3.17;;;;;;;6.16;53.34;95151.16;5043814;28;20170;-79
2024/02/05 05:46:47;;;;;;;10.05;2.58;;;;;;;6.10;53.31;95145.34;5045578;28;20028;-79
2024/02/05 05:49:12;;;;;;;5.35;3.00;;;;;;;5.96;53.60;95126.34;5043995;28;20533;-79
2024/02/05 05:51:38;;;;;;;6.78;3.10;;;;;;;6.00;53.41;95142.72;5044144;28;20036;-79
2024/02/05 05:54:03;;;;;;;8.95;3.30;;;;;;;5.96;53.39;95140.00;5045797;28;20516;-79
2024/02/05 05:56:29;;;;;;;6.90;3.10;;;;;;;5.97;53.49;95141.56;5044103;28;20274;-80
2024/02/05 05:58:54;;;;;;;5.88;3.80;;;;;;;5.95;53.62;95143.91;5044341;28;20029;-78
2024/02/05 06:01:20;;;;;;;6.85;3.65;;;;;;;5.98;53.53;95153.25;5045313;28;20065;-80
2024/02/05 06:03:45;;;;;;;7.32;4.20;;;;;;;6.00;53.42;95148.94;5044168;28;20028;-79
2024/02/05 06:06:11;;;;;;;7.18;3.95;;;;;;;5.96;53.50;95144.69;5044796;28;20021;-77
2024/02/05 06:08:36;;;;;;;11.15;4.40;;;;;;;5.98;53.45;95134.94;5045111;28;20059;-76
2024/02/05 06:11:02;;;;;;;7.40;3.83;;;;;;;6.01;53.31;95136.06;5045532;28;20518;-77
2024/02/05 06:13:27;;;;;;;9.23;4.65;;;;;;;6.09;53.34;95137.56;5043912;28;20056;-76
2024/02/05 06:15:54;;;;;;;8.25;4.85;;;;;;;6.10;53.32;95148.09;5027634;28;20025;-76
2024/02/05 06:18:19;;;;;;;11.52;5.55;;;;;;;6.08;53.02;95147.72;5045127;28;20291;-76
2024/02/05 06:20:45;;;;;;;7.50;4.90;;;;;;;6.15;52.92;95148.84;5044172;28;20031;-76
2024/02/05 06:23:11;;;;;;;8.63;4.72;;;;;;;6.22;52.79;95159.69;5044748;28;20109;-77
2024/02/05 06:25:36;;;;;;;6.53;4.00;;;;;;;6.34;52.42;95162.69;5045111;28;20032;-76
2024/02/05 06:28:01;;;;;;;6.18;3.67;;;;;;;6.41;52.16;95172.78;5043759;28;20029;-77
2024/02/05 06:30:27;;;;;;;6.95;3.78;;;;;;;6.52;52.05;95178.13;5027247;28;20120;-77
2024/02/05 06:32:53;;;;;;;10.43;4.72;;;;;;;6.56;51.99;95176.94;5044233;28;20534;-77
2024/02/05 06:35:18;;;;;;;8.57;3.97;;;;;;;6.61;51.90;95176.50;5043487;28;20065;-77
2024/02/05 06:37:43;;;;;;;12.23;5.88;;;;;;;6.68;51.88;95177.59;5043924;28;20140;-76
2024/02/05 06:40:09;;;;;;;15.00;7.60;;;;;;;6.71;51.80;95165.84;5026507;28;20021;-77
2024/02/05 06:42:35;;;;;;;17.38;10.77;;;;;;;6.75;51.79;95164.63;5043585;28;20487;-77
2024/02/05 06:45:01;;;;;;;16.77;11.55;;;;;;;6.71;52.13;95171.31;5026640;28;20082;-77
2024/02/05 06:47:27;;;;;;;20.50;11.38;;;;;;;6.69;51.95;95176.41;5043456;28;20051;-78
2024/02/05 06:49:52;;;;;;;19.27;11.52;;;;;;;6.71;52.20;95174.06;5043674;28;20499;-78
2024/02/05 06:52:19;;;;;;;21.15;13.02;;;;;;;6.71;52.03;95166.66;5044511;28;20352;-76
2024/02/05 06:54:45;;;;;;;20.42;11.95;;;;;;;6.78;51.89;95165.81;5027471;28;20108;-77
2024/02/05 06:57:10;;;;;;;21.77;11.98;;;;;;;6.79;52.13;95162.66;5043092;28;20504;-77
2024/02/05 06:59:36;;;;;;;14.80;8.75;;;;;;;6.86;51.77;95170.00;5043853;28;20017;-77
2024/02/05 07:02:01;;;;;;;17.25;10.77;;;;;;;6.91;51.86;95164.09;5044471;28;20490;-76
2024/02/05 07:04:26;;;;;;;20.45;11.18;;;;;;;7.02;51.72;95166.69;5043437;28;20032;-77
2024/02/05 07:06:52;;;;;;;24.35;13.35;;;;;;;7.06;51.87;95172.91;5027081;28;20029;-77
2024/02/05 07:09:17;;;;;;;26.50;13.98;;;;;;;7.11;51.87;95169.72;5042957;28;20028;-76
2024/02/05 07:11:42;;;;;;;21.40;12.60;;;;;;;7.15;51.97;95162.25;5043589;28;20423;-78
2024/02/05 07:14:08;;;;;;;21.85;11.80;;;;;;;7.22;52.00;95167.63;5043334;28;20021;-77
2024/02/05 07:16:33;;;;;;;17.90;11.52;;;;;;;7.31;52.21;95175.34;5043487;28;20021;-77
2024/02/05 07:18:59;;;;;;;15.55;11.05;;;;;;;7.42;51.77;95192.41;5044950;28;20060;-78
2024/02/05 07:21:24;;;;;;;14.57;8.55;;;;;;;7.52;51.76;95188.75;5048801;28;20025;-78
2024/02/05 07:23:49;;;;;;;13.50;7.47;;;;;;;7.56;51.81;95177.75;5048398;28;20031;-78
2024/02/05 07:26:15;;;;;;;15.80;6.88;;;;;;;7.63;51.67;95172.97;5047903;28;20021;-78
2024/02/05 07:28:42;;;;;;;16.48;7.32;;;;;;;7.69;51.64;95182.28;5048660;28;20484;-78
2024/02/05 07:31:08;;;;;;;12.90;6.38;;;;;;;7.79;51.57;95179.78;5047878;28;20021;-77
2024/02/05 07:33:33;;;;;;;12.63;7.22;;;;;;;7.93;51.21;95172.16;5049005;28;20469;-79
2024/02/05 07:35:59;;;;;;;10.68;6.50;;;;;;;8.12;50.21;95178.13;5046348;28;20394;-79
2024/02/05 07:38:24;;;;;;;9.95;5.07;;;;;;;8.33;48.70;95185.25;5048385;28;20021;-78
2024/02/05 07:40:49;;;;;;;9.25;4.85;;;;;;;8.41;48.92;95183.94;5046600;28;20163;-77
2024/02/05 07:43:15;;;;;;;7.57;3.85;;;;;;;8.57;48.42;95178.59;5045953;28;20025;-76
2024/02/05 07:45:41;;;;;;;6.05;3.80;;;;;;;8.62;47.92;95174.59;5047899;28;20549;-77
2024/02/05 07:48:07;;;;;;;5.93;3.80;;;;;;;8.75;47.72;95179.06;5047489;28;20111;-79
2024/02/05 07:50:34;;;;;;;8.23;3.70;;;;;;;8.88;47.23;95187.44;5046465;28;20137;-78
2024/02/05 07:52:59;;;;;;;10.07;3.75;;;;;;;8.93;47.27;95180.69;5046414;28;20434;-77
2024/02/05 07:55:25;;;;;;;17.90;4.55;;;;;;;8.99;47.09;95184.50;5046538;28;20031;-79
2024/02/05 07:57:50;;;;;;;13.23;3.75;;;;;;;9.02;47.14;95170.72;5045989;28;20061;-77
2024/02/05 08:00:16;;;;;;;8.57;3.80;;;;;;;9.05;47.28;95171.84;5046474;28;20506;-76
2024/02/05 08:02:41;;;;;;;5.63;3.05;;;;;;;9.06;47.69;95167.94;5047810;28;20044;-77
2024/02/05 08:05:07;;;;;;;5.70;3.53;;;;;;;9.10;48.00;95163.13;5047302;28;20033;-78
2024/02/05 08:07:33;;;;;;;8.02;3.40;;;;;;;9.16;47.74;95164.19;5029999;28;20074;-77
2024/02/05 08:09:58;;;;;;;8.10;3.90;;;;;;;9.25;47.68;95167.16;5046048;28;20094;-77
2024/02/05 08:12:24;;;;;;;7.57;4.30;;;;;;;9.49;47.14;95158.81;5046130;28;20025;-77
2024/02/05 08:14:50;;;;;;;8.05;4.13;;;;;;;9.69;46.63;95164.28;5047107;28;20147;-76
2024/02/05 08:17:15;;;;;;;11.07;4.82;;;;;;;9.76;46.67;95162.16;5045895;28;20473;-77
2024/02/05 08:19:40;;;;;;;9.55;4.93;;;;;;;9.88;46.29;95168.19;5047396;28;20028;-76
2024/02/05 08:22:06;;;;;;;8.52;3.90;;;;;;;10.07;45.80;95167.34;5047177;28;20399;-77
2024/02/05 08:24:34;;;;;;;6.85;4.05;;;;;;;10.55;44.96;95174.06;5047440;28;20029;-77
2024/02/05 08:27:00;;;;;;;10.00;4.55;;;;;;;10.94;44.08;95169.56;5045401;28;20029;-76
2024/02/05 08:29:26;;;;;;;10.68;4.63;;;;;;;11.20;43.66;95178.69;5046989;28;20032;-78
2024/02/05 08:31:53;;;;;;;15.23;4.50;;;;;;;11.24;43.62;95174.66;5045528;28;20029;-79
2024/02/05 08:34:18;;;;;;;13.52;4.82;;;;;;;11.22;43.25;95168.78;5047031;28;20415;-78
2024/02/05 08:36:43;;;;;;;6.63;3.55;;;;;;;11.14;42.32;95173.72;5045563;28;20482;-78
2024/02/05 08:39:10;;;;;;;7.75;3.58;;;;;;;11.19;42.52;95166.16;5045517;28;20104;-77
2024/02/05 08:41:36;;;;;;;8.63;3.88;;;;;;;11.20;42.57;95173.97;5045524;28;20037;-78
2024/02/05 08:44:02;;;;;;;5.78;3.47;;;;;;;11.36;42.68;95173.91;5045132;28;20047;-78
2024/02/05 08:46:27;;;;;;;8.02;3.75;;;;;;;11.50;42.88;95169.19;5045800;28;20032;-78
2024/02/05 08:48:52;;;;;;;7.78;4.22;;;;;;;11.79;42.63;95172.66;5028574;28;20025;-77
2024/02/05 08:51:18;;;;;;;10.95;4.00;;;;;;;12.61;40.95;95167.34;5047062;28;20032;-77
2024/02/05 08:53:46;;;;;;;10.23;4.25;;;;;;;13.86;38.57;95165.75;5046593;28;20359;-77
2024/02/05 08:56:11;;;;;;;9.75;4.72;;;;;;;15.09;36.29;95171.53;5046624;28;20506;-78
2024/02/05 08:58:36;;;;;;;6.88;4.55;;;;;;;16.01;34.83;95185.31;5046546;28;20249;-77
2024/02/05 09:01:02;;;;;;;12.95;5.25;;;;;;;16.93;33.10;95169.03;5044813;28;20028;-77
2024/02/05 09:03:28;;;;;;;9.07;4.22;;;;;;;17.51;32.40;95162.88;5046705;28;20126;-78
2024/02/05 09:05:53;;;;;;;10.20;4.13;;;;;;;17.93;31.40;95142.41;5044954;28;20036;-77
2024/02/05 09:08:18;;;;;;;9.63;4.50;;;;;;;17.57;32.28;95153.88;5045143;28;20032;-77
2024/02/05 09:10:44;;;;;;;10.60;4.95;;;;;;;17.52;31.90;95153.28;5044995;28;20116;-78
2024/02/05 09:13:10;;;;;;;12.75;5.05;;;;;;;17.27;32.58;95158.63;5044831;28;20029;-78
2024/02/05 09:15:35;;;;;;;11.43;4.30;;;;;;;17.26;32.28;95157.81;5044761;28;20028;-78
2024/02/05 09:18:01;;;;;;;9.82;4.25;;;;;;;16.91;32.91;95144.50;5044779;28;20040;-77
2024/02/05 09:20:26;;;;;;;13.07;4.47;;;;;;;17.09;32.93;95146.41;5044736;28;20017;-78
2024/02/05 09:22:53;;;;;;;12.20;4.45;;;;;;;18.70;30.54;95152.47;5044680;28;20475;-78
2024/02/05 09:25:19;;;;;;;14.68;4.88;;;;;;;20.09;28.67;95151.78;5046055;28;20032;-78
2024/02/05 09:27:44;;;;;;;9.50;4.57;;;;;;;21.10;28.17;95142.03;5045920;28;20120;-78
2024/02/05 09:30:10;;;;;;;15.23;4.93;;;;;;;22.42;25.53;95146.97;5044738;28;20071;-77
2024/02/05 09:32:35;;;;;;;11.98;5.20;;;;;;;23.72;24.01;95156.56;5027670;28;20068;-78
2024/02/05 09:35:01;;;;;;;10.10;5.53;;;;;;;24.88;23.12;95152.63;5044831;28;20506;-78
2024/02/05 09:37:26;;;;;;;10.10;5.18;;;;;;;26.00;21.41;95137.22;5045398;28;20029;-78
2024/02/05 09:39:52;;;;;;;10.57;4.35;;;;;;;27.04;20.54;95137.31;5045605;28;20558;-78
2024/02/05 09:42:17;;;;;;;16.83;5.07;;;;;;;28.00;18.95;95119.19;5044260;28;20024;-77
2024/02/05 09:44:50;;;;;;;9.77;4.40;;;;;;;28.93;18.07;95119.50;5043687;28;20562;-77
2024/02/05 09:47:18;;;;;;;;;;;;;;;29.76;17.73;95126.97;5045037;28;20028;-79
2024/02/05 09:49:48;;;;;;;8.02;3.97;;;;;;;30.31;15.78;95126.59;5043981;28;20388;-79
2024/02/05 09:52:14;;;;;;;7.13;3.67;;;;;;;31.00;16.65;95120.22;5044354;28;20406;-77
2024/02/05 09:54:42;;;;;;;6.65;3.50;;;;;;;31.78;14.33;95114.56;5045575;28;20082;-77
2024/02/05 09:57:09;;;;;;;7.22;3.60;;;;;;;32.42;13.76;95127.34;5044063;28;20378;-77
2024/02/05 09:59:35;;;;;;;6.93;3.08;;;;;;;32.97;13.30;95108.53;5044627;28;20391;-77
2024/02/05 10:02:06;;;;;;;11.00;3.33;;;;;;;33.62;12.13;95111.13;5045489;28;20029;-78
2024/02/05 10:04:35;;;;;;;8.65;3.00;;;;;;;33.83;11.85;95102.88;5045696;28;20057;-78
2024/02/05 10:07:02;;;;;;;4.15;2.47;;;;;;;34.18;11.72;95099.22;5027103;28;20482;-78
2024/02/05 10:09:28;;;;;;;6.72;2.80;;;;;;;34.36;11.86;95100.69;5044264;28;20042;-78
2024/02/05 10:11:55;;;;;;;5.80;2.55;;;;;;;34.76;11.22;95088.88;5044237;28;20029;-78
2024/02/05 10:14:25;;;;;;;6.13;2.80;;;;;;;35.06;11.05;95096.19;5044150;28;20032;-78
2024/02/05 10:16:52;;;;;;;6.47;2.90;;;;;;;35.47;10.71;95089.94;5044723;28;20108;-79
2024/02/05 10:19:17;;;;;;;7.10;3.00;;;;;;;35.74;10.35;95087.69;5043666;28;20036;-78
2024/02/05 10:21:43;;;;;;;5.35;2.03;;;;;;;35.48;9.41;95086.47;5045623;28;20021;-79
2024/02/05 10:24:13;;;;;;;3.40;2.00;;;;;;;35.77;9.39;95082.84;5045069;28;20041;-77
2024/02/05 10:26:39;;;;;;;2.55;1.58;;;;;;;35.84;8.92;95071.28;5027632;28;20454;-77
2024/02/05 10:29:07;;;;;;;8.02;2.85;;;;;;;36.33;9.28;95071.94;5043998;28;20024;-77
2024/02/05 10:31:33;;;;;;;6.22;2.95;;;;;;;36.08;8.87;95057.25;5027191;28;20025;-78
2024/02/05 10:33:58;;;;;;;5.18;1.70;;;;;;;36.23;8.66;95053.28;5044032;28;20052;-78
2024/02/05 10:36:24;;;;;;;4.75;2.50;;;;;;;36.06;8.63;95051.38;5044830;28;20025;-78
2024/02/05 10:38:49;;;;;;;4.60;2.25;;;;;;;36.30;9.00;95047.41;5044049;28;20406;-77
2024/02/05 10:41:15;;;;;;;3.63;1.75;;;;;;;36.65;8.41;95041.25;5043456;28;20128;-77
2024/02/05 10:43:43;;;;;;;3.38;1.70;;;;;;;37.16;8.48;95022.56;5043643;28;20029;-77
2024/02/05 10:46:08;;;;;;;3.90;1.73;;;;;;;37.56;8.20;95040.97;5043185;28;20107;-78
2024/02/05 10:48:34;;;;;;;2.83;1.80;;;;;;;37.66;7.81;95035.91;5043868;28;20480;-77
2024/02/05 10:51:00;;;;;;;4.38;2.20;;;;;;;37.73;8.04;95034.91;5043572;28;20509;-77
2024/02/05 10:53:26;;;;;;;3.90;1.90;;;;;;;38.07;7.98;95035.66;5044632;28;20195;-78
2024/02/05 10:55:54;;;;;;;5.18;2.20;;;;;;;38.13;7.94;95036.06;5031404;28;20087;-78
2024/02/05 10:58:21;;;;;;;3.10;1.80;;;;;;;38.47;7.77;95033.88;5047150;28;20043;-77
2024/02/05 11:00:46;;;;;;;7.45;2.40;;;;;;;38.09;7.77;95024.34;5049387;28;20045;-77
2024/02/05 11:03:17;;;;;;;3.72;2.20;;;;;;;38.59;7.30;95033.88;5030361;28;20048;-78
2024/02/05 11:05:43;;;;;;;6.07;2.80;;;;;;;39.13;7.29;95038.63;5047597;28;20060;-77
2024/02/05 11:08:11;;;;;;;6.53;1.95;;;;;;;39.25;6.99;95042.97;5047116;28;20040;-78
2024/02/05 11:10:44;;;;;;;3.90;2.42;;;;;;;39.82;7.32;95037.66;5047336;28;20109;-77
2024/02/05 11:13:12;;;;;;;3.40;2.00;;;;;;;40.24;7.13;95024.19;5030862;28;20466;-77
2024/02/05 11:15:39;;;;;;;5.03;1.70;;;;;;;40.34;6.70;95030.50;5047172;28;20033;-78
2024/02/05 11:18:11;;;;;;;4.45;1.80;;;;;;;40.60;6.60;95030.44;5047579;28;20033;-77
2024/02/05 11:20:37;;;;;;;3.95;1.70;;;;;;;40.35;6.58;95019.72;5047088;28;20021;-77
2024/02/05 11:23:03;;;;;;;2.78;1.77;;;;;;;40.49;6.62;95020.53;5047230;28;20036;-77
2024/02/05 11:25:31;;;;;;;4.72;1.95;;;;;;;40.92;6.42;94999.75;5047079;28;20371;-77
2024/02/05 11:27:56;;;;;;;4.85;1.90;;;;;;;41.22;6.41;94999.81;5046951;28;20096;-77
2024/02/05 11:30:21;;;;;;;5.07;1.83;;;;;;;41.52;6.36;95003.50;5047119;28;20476;-78
2024/02/05 11:32:47;;;;;;;3.35;2.22;;;;;;;42.32;5.99;94993.66;5048136;28;20201;-77